Time;durP1;ratioP1;P1;durP2;ratioP2;P2;SDS_P1;SDS_P2;PMS_P1;PMS_P2;Temp;Humidity;BMP_temperature;BMP_pressure;BME280_temperature;BME280_humidity;BME280_pressure;Samples;Min_cycle;Max_cycle;Signal;HPM_P1;HPM_P2
2020/12/02 00:00:22;;;;;;;6.25;4.47;;;8.20;76.10;;;;;;4984730;28;20058;-78
2020/12/02 00:02:55;;;;;;;7.07;4.63;;;8.20;76.60;;;;;;5035702;28;20076;-77
2020/12/02 00:05:21;;;;;;;8.23;5.30;;;8.20;76.10;;;;;;5025933;28;20112;-77
2020/12/02 00:07:55;;;;;;;5.85;4.82;;;8.20;76.10;;;;;;5009711;28;20028;-77
2020/12/02 00:10:21;;;;;;;6.70;4.72;;;8.20;76.10;;;;;;5027707;28;20064;-79
2020/12/02 00:12:47;;;;;;;10.50;5.47;;;8.20;76.10;;;;;;5025873;28;20390;-79
2020/12/02 00:15:13;;;;;;;6.05;4.95;;;8.20;76.10;;;;;;5027416;28;20396;-78
2020/12/02 00:17:39;;;;;;;8.43;5.28;;;8.20;76.10;;;;;;5027355;28;20026;-78
2020/12/02 00:20:07;;;;;;;5.40;4.90;;;8.20;76.10;;;;;;5025661;28;20044;-78
2020/12/02 00:22:36;;;;;;;4.93;4.18;;;8.20;76.20;;;;;;5025813;28;20239;-77
2020/12/02 00:25:03;;;;;;;6.28;4.95;;;8.20;76.10;;;;;;5027447;28;20124;-78
2020/12/02 00:27:29;;;;;;;10.77;5.72;;;8.20;76.20;;;;;;5026617;28;20412;-78
2020/12/02 00:29:56;;;;;;;6.03;5.43;;;8.10;76.00;;;;;;5024893;28;20042;-78
2020/12/02 00:32:28;;;;;;;6.03;4.53;;;8.20;76.20;;;;;;5025211;28;20040;-77
2020/12/02 00:34:55;;;;;;;6.47;4.90;;;8.10;76.00;;;;;;5025952;28;20029;-78
2020/12/02 00:37:22;;;;;;;7.85;5.32;;;8.20;76.20;;;;;;5026064;28;20029;-77
2020/12/02 00:39:48;;;;;;;6.35;4.72;;;8.20;76.20;;;;;;5008731;28;20053;-76
2020/12/02 00:42:15;;;;;;;7.72;4.57;;;8.10;76.00;;;;;;5025552;28;20068;-77
2020/12/02 00:44:41;;;;;;;7.60;4.95;;;8.20;76.20;;;;;;5008500;28;20045;-77
2020/12/02 00:47:14;;;;;;;9.40;5.03;;;8.10;76.00;;;;;;5008642;28;20552;-77
2020/12/02 00:49:41;;;;;;;6.30;4.60;;;8.20;76.20;;;;;;5025224;28;20444;-77
2020/12/02 00:52:07;;;;;;;7.97;4.90;;;8.10;76.10;;;;;;5019000;28;20051;-78
2020/12/02 00:54:34;;;;;;;6.57;4.50;;;8.20;76.20;;;;;;5025213;28;20025;-77
2020/12/02 00:57:01;;;;;;;7.28;5.20;;;8.10;76.10;;;;;;5025358;28;20037;-77
2020/12/02 00:59:31;;;;;;;8.50;4.97;;;8.20;76.20;;;;;;5024607;28;20029;-76
2020/12/02 01:02:29;;;;;;;7.63;4.72;;;8.10;76.10;;;;;;5026711;28;20038;-77
2020/12/02 01:04:58;;;;;;;7.28;5.05;;;8.10;76.10;;;;;;5026320;28;20030;-76
2020/12/02 01:07:26;;;;;;;8.68;5.43;;;8.10;76.00;;;;;;4992321;28;20124;-77
2020/12/02 01:09:53;;;;;;;7.22;4.70;;;8.10;76.00;;;;;;5025075;28;20512;-78
2020/12/02 01:12:20;;;;;;;7.82;5.18;;;8.10;76.00;;;;;;5026214;28;20045;-76
2020/12/02 01:14:48;;;;;;;6.22;4.70;;;8.10;76.10;;;;;;5008858;28;20038;-78
2020/12/02 01:17:15;;;;;;;7.07;5.20;;;8.10;76.10;;;;;;5026517;28;20055;-77
2020/12/02 01:19:41;;;;;;;8.10;4.80;;;8.10;76.10;;;;;;5024398;28;20037;-76
2020/12/02 01:22:22;;;;;;;6.47;4.30;;;8.10;76.10;;;;;;5025147;28;20113;-76
2020/12/02 01:24:57;;;;;;;7.32;4.43;;;8.10;76.20;;;;;;5008845;28;20505;-77
2020/12/02 01:27:30;;;;;;;6.90;4.72;;;8.10;76.10;;;;;;5025016;28;20120;-77
2020/12/02 01:29:57;;;;;;;7.72;4.72;;;8.00;76.00;;;;;;5024426;28;20033;-77
2020/12/02 01:32:23;;;;;;;6.15;4.65;;;8.10;76.20;;;;;;5024196;28;20380;-78
2020/12/02 01:34:52;;;;;;;8.93;5.55;;;8.00;76.00;;;;;;5025975;28;20484;-77
2020/12/02 01:37:23;;;;;;;6.55;4.90;;;8.00;76.00;;;;;;5026053;28;20041;-77
2020/12/02 01:39:52;;;;;;;7.82;5.30;;;8.00;76.00;;;;;;5024505;28;20033;-78
2020/12/02 01:42:18;;;;;;;6.95;4.75;;;8.00;76.00;;;;;;5025835;28;20072;-77
2020/12/02 01:44:44;;;;;;;6.88;4.10;;;8.00;76.00;;;;;;5025725;28;20472;-78
2020/12/02 01:47:16;;;;;;;6.20;4.50;;;7.90;75.90;;;;;;5024286;28;20068;-77
2020/12/02 01:50:11;;;;;;;8.65;4.20;;;7.90;75.90;;;;;;5025946;28;20084;-77
2020/12/02 01:53:04;;;;;;;6.22;4.03;;;8.00;76.10;;;;;;5026004;28;20041;-77
2020/12/02 01:55:41;;;;;;;6.00;4.75;;;7.90;76.40;;;;;;5024354;28;20036;-77
2020/12/02 01:58:21;;;;;;;7.47;4.38;;;7.90;75.90;;;;;;5024226;28;20396;-77
2020/12/02 02:00:56;;;;;;;6.82;4.60;;;7.90;76.00;;;;;;5006422;28;20038;-77
2020/12/02 02:03:23;;;;;;;5.45;4.40;;;7.90;76.00;;;;;;5005990;28;20029;-76
2020/12/02 02:05:57;;;;;;;6.20;4.55;;;7.90;76.00;;;;;;5004755;28;20516;-77
2020/12/02 02:08:31;;;;;;;7.22;4.60;;;7.90;76.00;;;;;;5006854;28;20045;-78
2020/12/02 02:10:59;;;;;;;5.75;4.18;;;7.80;75.90;;;;;;5008277;28;20053;-78
2020/12/02 02:13:44;;;;;;;8.00;4.20;;;7.80;75.90;;;;;;5024530;28;20040;-78
2020/12/02 02:16:16;;;;;;;6.72;4.50;;;7.80;75.90;;;;;;5025971;28;20460;-77
2020/12/02 02:18:43;;;;;;;4.00;3.45;;;7.80;76.00;;;;;;5004691;28;20033;-78
2020/12/02 02:21:14;;;;;;;5.88;4.60;;;7.80;76.00;;;;;;5005862;28;20468;-75
2020/12/02 02:23:41;;;;;;;5.07;4.00;;;7.80;76.00;;;;;;5006280;28;20109;-78
2020/12/02 02:26:15;;;;;;;6.72;4.90;;;7.70;75.90;;;;;;5020668;28;20030;-77
2020/12/02 02:28:55;;;;;;;4.97;4.00;;;7.70;75.90;;;;;;5009435;28;20225;-76
2020/12/02 02:31:24;;;;;;;6.10;4.50;;;7.70;75.90;;;;;;5024127;28;20052;-78
2020/12/02 02:33:51;;;;;;;4.10;3.70;;;7.70;75.90;;;;;;5008187;28;20033;-75
2020/12/02 02:36:21;;;;;;;4.78;4.15;;;7.70;76.40;;;;;;5024416;28;20152;-77
2020/12/02 02:38:47;;;;;;;5.03;3.88;;;7.60;75.80;;;;;;5025916;28;20034;-76
2020/12/02 02:41:13;;;;;;;6.95;4.00;;;7.60;75.80;;;;;;5024133;28;20096;-77
2020/12/02 02:43:40;;;;;;;6.82;4.22;;;7.60;75.80;;;;;;5026860;28;20162;-77
2020/12/02 02:46:07;;;;;;;5.25;3.78;;;7.60;75.80;;;;;;5008907;28;20046;-77
2020/12/02 02:48:34;;;;;;;4.68;3.75;;;7.60;75.80;;;;;;5012482;28;20042;-77
2020/12/02 02:51:01;;;;;;;7.35;3.63;;;7.60;75.90;;;;;;5018329;28;20030;-77
2020/12/02 02:53:28;;;;;;;4.93;3.95;;;7.60;75.90;;;;;;5011364;28;20029;-77
2020/12/02 02:55:55;;;;;;;5.72;3.70;;;7.60;75.90;;;;;;5012091;28;20508;-77
2020/12/02 02:58:25;;;;;;;5.18;3.90;;;7.50;75.70;;;;;;5012514;28;20455;-76
2020/12/02 03:00:53;;;;;;;4.15;3.55;;;7.50;75.80;;;;;;5012377;28;20045;-77
2020/12/02 03:03:19;;;;;;;4.40;3.95;;;7.50;75.80;;;;;;5012265;28;20042;-77
2020/12/02 03:05:46;;;;;;;6.30;3.90;;;7.50;75.80;;;;;;5010859;28;20038;-77
2020/12/02 03:08:13;;;;;;;5.68;3.67;;;7.50;75.80;;;;;;5011086;28;20128;-77
2020/12/02 03:10:41;;;;;;;4.97;3.97;;;7.50;75.80;;;;;;5011941;28;20038;-76
2020/12/02 03:13:18;;;;;;;4.65;3.85;;;7.50;75.80;;;;;;5010889;28;20203;-77
2020/12/02 03:15:44;;;;;;;3.90;3.40;;;7.50;75.80;;;;;;5010634;28;20373;-77
2020/12/02 03:18:10;;;;;;;3.88;3.47;;;7.50;75.80;;;;;;4993997;28;20533;-76
2020/12/02 03:20:40;;;;;;;6.15;4.38;;;7.50;75.90;;;;;;5023406;28;20128;-77
2020/12/02 03:23:10;;;;;;;8.80;4.60;;;7.40;75.70;;;;;;5025415;28;20036;-77
2020/12/02 03:25:38;;;;;;;4.80;3.53;;;7.40;75.70;;;;;;5032020;28;20047;-77
2020/12/02 03:28:04;;;;;;;7.57;4.47;;;7.40;75.70;;;;;;5031296;28;20060;-77
2020/12/02 03:30:30;;;;;;;7.65;4.72;;;7.40;75.80;;;;;;5030574;28;20380;-77
2020/12/02 03:32:57;;;;;;;6.97;3.78;;;7.40;75.80;;;;;;5031200;28;20026;-76
2020/12/02 03:35:23;;;;;;;5.40;3.72;;;7.40;75.80;;;;;;5029673;28;20057;-77
2020/12/02 03:37:49;;;;;;;6.63;3.55;;;7.40;75.80;;;;;;5030070;28;20092;-78
2020/12/02 03:40:15;;;;;;;5.70;3.67;;;7.30;75.60;;;;;;5031389;28;20100;-77
2020/12/02 03:42:41;;;;;;;6.32;4.35;;;7.30;75.60;;;;;;5031174;28;20564;-78
2020/12/02 03:45:09;;;;;;;7.20;4.20;;;7.30;75.70;;;;;;5031100;28;20457;-77
2020/12/02 03:47:36;;;;;;;5.53;3.65;;;7.30;75.70;;;;;;5030843;28;20045;-77
2020/12/02 03:50:08;;;;;;;6.05;3.95;;;7.30;75.70;;;;;;5030054;28;20129;-77
2020/12/02 03:52:33;;;;;;;6.05;4.13;;;7.20;75.60;;;;;;5030066;28;20044;-77
2020/12/02 03:54:59;;;;;;;5.53;3.72;;;7.20;75.60;;;;;;5029391;28;20338;-75
2020/12/02 03:57:26;;;;;;;5.95;3.90;;;7.20;75.60;;;;;;5029315;28;20030;-76
2020/12/02 03:59:51;;;;;;;6.28;3.75;;;7.20;75.60;;;;;;5030671;28;20068;-76
2020/12/02 04:02:17;;;;;;;4.57;3.28;;;7.20;75.60;;;;;;5030433;28;20617;-77
2020/12/02 04:04:43;;;;;;;5.93;3.50;;;7.20;76.20;;;;;;5031018;28;20570;-77
2020/12/02 04:07:09;;;;;;;7.47;4.15;;;7.20;75.70;;;;;;5031050;28;20030;-76
2020/12/02 04:09:35;;;;;;;5.03;3.40;;;7.20;75.70;;;;;;5029382;28;20470;-76
2020/12/02 04:12:01;;;;;;;7.00;3.92;;;7.10;75.50;;;;;;5030559;28;20048;-77
2020/12/02 04:14:27;;;;;;;6.80;3.53;;;7.20;75.70;;;;;;5029012;28;20357;-76
2020/12/02 04:16:53;;;;;;;6.50;3.50;;;7.20;75.70;;;;;;5012863;28;20033;-76
2020/12/02 04:19:19;;;;;;;8.18;3.75;;;7.20;76.20;;;;;;5030496;28;20026;-77
2020/12/02 04:21:45;;;;;;;4.82;3.50;;;7.10;75.60;;;;;;5030585;28;20396;-76
2020/12/02 04:24:11;;;;;;;3.63;2.90;;;7.10;75.60;;;;;;5030552;28;20029;-76
2020/12/02 04:26:37;;;;;;;5.43;3.78;;;7.00;75.40;;;;;;5028834;28;20026;-76
2020/12/02 04:29:04;;;;;;;4.97;3.50;;;7.00;75.40;;;;;;5030120;28;20025;-77
2020/12/02 04:31:31;;;;;;;6.40;3.05;;;7.00;75.50;;;;;;5030093;28;20061;-76
2020/12/02 04:33:56;;;;;;;4.35;3.40;;;7.00;75.50;;;;;;5030369;28;20025;-76
2020/12/02 04:36:23;;;;;;;6.65;4.28;;;7.00;75.50;;;;;;5028649;28;20132;-77
2020/12/02 04:38:49;;;;;;;4.28;3.30;;;7.00;75.50;;;;;;5012607;28;20120;-77
2020/12/02 04:41:17;;;;;;;6.30;3.03;;;7.00;75.50;;;;;;5030246;28;20037;-78
2020/12/02 04:43:46;;;;;;;8.45;3.85;;;6.90;75.40;;;;;;5030053;28;20125;-76
2020/12/02 04:46:31;;;;;;;4.70;3.20;;;6.90;75.40;;;;;;5029842;28;20587;-76
2020/12/02 04:49:14;;;;;;;5.63;3.67;;;6.90;75.40;;;;;;5028823;28;20045;-77
2020/12/02 04:51:41;;;;;;;6.65;3.45;;;6.80;75.30;;;;;;5028702;28;20039;-76
2020/12/02 04:54:08;;;;;;;3.40;3.10;;;6.80;75.30;;;;;;5028599;28;20083;-76
2020/12/02 04:56:38;;;;;;;6.07;3.70;;;6.80;75.30;;;;;;5029917;28;20032;-77
2020/12/02 04:59:04;;;;;;;7.07;3.45;;;6.80;75.40;;;;;;5029929;28;20109;-76
2020/12/02 05:01:33;;;;;;;6.35;3.78;;;6.80;75.40;;;;;;5027957;28;20422;-76
2020/12/02 05:03:59;;;;;;;5.28;3.33;;;6.80;75.40;;;;;;5012153;28;20167;-77
2020/12/02 05:06:31;;;;;;;5.53;3.25;;;6.80;75.40;;;;;;5011725;28;20049;-76
2020/12/02 05:09:17;;;;;;;8.10;3.55;;;6.80;75.40;;;;;;5028611;28;20029;-76
2020/12/02 05:11:54;;;;;;;5.53;3.67;;;6.80;75.40;;;;;;5011874;28;20036;-77
2020/12/02 05:14:20;;;;;;;6.90;3.30;;;6.80;75.40;;;;;;5029858;28;20091;-77
2020/12/02 05:17:03;;;;;;;4.63;3.17;;;6.70;75.30;;;;;;5011877;28;20029;-76
2020/12/02 05:19:29;;;;;;;6.05;3.58;;;6.70;75.30;;;;;;5011644;28;20066;-77
2020/12/02 05:22:06;;;;;;;7.63;3.45;;;6.70;75.30;;;;;;5029670;28;20040;-76
2020/12/02 05:24:51;;;;;;;6.05;3.53;;;6.70;75.40;;;;;;5029601;28;20116;-76
2020/12/02 05:27:28;;;;;;;4.78;3.40;;;6.70;75.40;;;;;;5028440;28;20033;-77
2020/12/02 05:30:02;;;;;;;5.00;3.75;;;6.70;75.40;;;;;;5003136;28;20057;-78
2020/12/02 05:32:29;;;;;;;7.72;3.38;;;6.70;75.40;;;;;;5024174;28;20021;-77
2020/12/02 05:34:56;;;;;;;5.40;3.78;;;6.70;75.40;;;;;;5012727;28;20243;-77
2020/12/02 05:37:38;;;;;;;6.22;3.97;;;6.70;75.40;;;;;;5006339;28;20117;-77
2020/12/02 05:40:14;;;;;;;6.05;3.40;;;6.70;75.40;;;;;;5016573;28;20143;-77
2020/12/02 05:42:43;;;;;;;7.63;3.20;;;6.70;75.40;;;;;;5025098;28;20068;-79
2020/12/02 05:45:28;;;;;;;6.97;4.13;;;6.70;75.40;;;;;;5025178;28;20033;-76
2020/12/02 05:47:55;;;;;;;7.20;3.45;;;6.70;75.40;;;;;;5007428;28;20092;-77
2020/12/02 05:50:24;;;;;;;6.18;3.80;;;6.70;75.40;;;;;;5020039;28;20049;-76
2020/12/02 05:52:59;;;;;;;5.93;3.25;;;6.70;75.40;;;;;;5025742;28;20052;-76
2020/12/02 05:55:30;;;;;;;6.50;3.65;;;6.70;75.40;;;;;;5022779;28;21030;-76
2020/12/02 05:58:06;;;;;;;5.65;3.38;;;6.70;75.40;;;;;;5034906;28;20436;-76
2020/12/02 06:00:33;;;;;;;3.78;3.15;;;6.70;75.40;;;;;;5025457;28;20043;-76
2020/12/02 06:02:59;;;;;;;6.05;3.67;;;6.80;75.60;;;;;;5003532;28;20065;-75
2020/12/02 06:05:30;;;;;;;7.07;3.33;;;6.80;75.60;;;;;;5006192;28;20056;-76
2020/12/02 06:08:04;;;;;;;6.20;3.58;;;6.80;75.60;;;;;;5021241;28;20026;-76
2020/12/02 06:10:42;;;;;;;5.88;3.92;;;6.80;75.70;;;;;;5024512;28;20037;-76
2020/12/02 06:13:16;;;;;;;4.40;3.40;;;6.80;75.60;;;;;;5026260;28;20145;-77
2020/12/02 06:15:43;;;;;;;6.68;3.80;;;6.80;75.60;;;;;;5014248;28;20045;-77
2020/12/02 06:18:32;;;;;;;9.63;4.18;;;6.80;75.60;;;;;;5025583;28;20128;-76
2020/12/02 06:20:59;;;;;;;6.15;3.70;;;6.80;75.60;;;;;;5024013;28;20042;-76
2020/12/02 06:23:34;;;;;;;4.75;3.47;;;6.80;75.60;;;;;;5027150;28;20109;-77
2020/12/02 06:26:00;;;;;;;5.95;4.38;;;6.80;75.60;;;;;;5029364;28;20453;-76
2020/12/02 06:28:29;;;;;;;5.72;3.38;;;6.80;75.60;;;;;;5029157;28;20076;-76
2020/12/02 06:31:02;;;;;;;9.27;3.92;;;6.80;75.50;;;;;;5028538;28;20030;-76
2020/12/02 06:33:35;;;;;;;6.60;4.30;;;6.80;75.50;;;;;;5011510;28;20341;-76
2020/12/02 06:36:18;;;;;;;5.55;3.60;;;6.90;75.80;;;;;;5026474;28;20120;-76
2020/12/02 06:39:16;;;;;;;5.65;3.90;;;6.90;75.80;;;;;;5022739;28;20181;-77
2020/12/02 06:41:43;;;;;;;6.10;3.72;;;6.90;75.80;;;;;;5005284;28;20034;-81
2020/12/02 06:44:12;;;;;;;4.72;3.58;;;6.90;75.70;;;;;;4994360;28;20440;-76
2020/12/02 06:47:17;;;;;;;6.18;4.03;;;6.90;75.70;;;;;;5010736;28;20049;-77
2020/12/02 06:49:42;;;;;;;6.15;4.80;;;6.90;75.80;;;;;;4967087;28;20504;-77
2020/12/02 06:52:20;;;;;;;6.68;3.42;;;6.90;75.70;;;;;;4953196;28;20076;-77
2020/12/02 06:54:46;;;;;;;6.28;4.35;;;6.90;75.70;;;;;;4999905;28;20037;-79
2020/12/02 06:57:11;;;;;;;5.78;3.70;;;6.90;75.70;;;;;;5021042;28;20040;-78
2020/12/02 06:59:52;;;;;;;11.35;4.43;;;6.90;75.80;;;;;;5027429;28;20030;-77
2020/12/02 07:02:25;;;;;;;8.68;5.00;;;7.00;76.10;;;;;;4996708;28;20505;-78
2020/12/02 07:04:52;;;;;;;6.45;4.53;;;7.00;76.00;;;;;;5007138;28;20030;-77
2020/12/02 07:07:18;;;;;;;5.75;4.28;;;7.00;76.00;;;;;;5007172;28;20399;-78
2020/12/02 07:09:48;;;;;;;7.45;4.32;;;7.10;76.10;;;;;;5014347;28;20033;-77
2020/12/02 07:12:17;;;;;;;10.07;4.95;;;7.00;75.90;;;;;;5016214;28;20425;-81
2020/12/02 07:14:43;;;;;;;6.25;4.28;;;7.10;76.10;;;;;;5013308;28;20121;-79
2020/12/02 07:17:14;;;;;;;8.10;4.57;;;7.10;76.10;;;;;;5015850;28;20562;-80
2020/12/02 07:19:45;;;;;;;11.15;4.78;;;7.10;76.10;;;;;;5024466;28;20033;-77
2020/12/02 07:22:30;;;;;;;7.50;4.47;;;7.10;76.10;;;;;;5008364;28;20029;-81
2020/12/02 07:25:03;;;;;;;5.95;4.28;;;7.10;76.20;;;;;;5025998;28;20033;-75
2020/12/02 07:27:29;;;;;;;6.70;4.47;;;7.10;76.10;;;;;;5027428;28;20033;-80
2020/12/02 07:30:01;;;;;;;5.95;4.20;;;7.20;76.30;;;;;;5025128;28;20485;-81
2020/12/02 07:32:27;;;;;;;7.18;4.40;;;7.20;76.30;;;;;;5009767;28;20021;-79
2020/12/02 07:35:05;;;;;;;7.72;4.90;;;7.20;76.30;;;;;;5028081;28;20033;-79
2020/12/02 07:37:32;;;;;;;7.13;4.47;;;7.20;76.30;;;;;;5026301;28;20136;-76
2020/12/02 07:40:00;;;;;;;8.40;4.85;;;7.20;76.30;;;;;;5027996;28;20040;-80
2020/12/02 07:42:38;;;;;;;8.60;4.57;;;7.20;76.30;;;;;;5010741;28;20513;-83
2020/12/02 07:45:13;;;;;;;8.43;4.55;;;7.20;76.30;;;;;;5028212;28;20040;-84
2020/12/02 07:47:42;;;;;;;9.75;4.97;;;7.20;76.30;;;;;;5025539;28;20353;-77
2020/12/02 07:50:30;;;;;;;6.82;4.28;;;7.20;76.30;;;;;;5038446;28;20053;-79
2020/12/02 07:53:06;;;;;;;6.68;4.60;;;7.20;76.30;;;;;;5026586;28;20033;-81
2020/12/02 07:55:52;;;;;;;9.38;4.75;;;7.20;76.80;;;;;;5023790;28;20079;-79
2020/12/02 07:58:33;;;;;;;8.75;5.13;;;7.20;76.30;;;;;;5025596;28;20115;-80
2020/12/02 08:01:24;;;;;;;4.45;3.95;;;7.20;76.30;;;;;;5019590;28;20041;-80
2020/12/02 08:03:51;;;;;;;8.35;5.10;;;7.20;76.30;;;;;;5025383;28;20022;-81
2020/12/02 08:06:42;;;;;;;6.40;4.78;;;7.30;76.50;;;;;;5014814;28;20504;-79
2020/12/02 08:09:08;;;;;;;7.32;4.22;;;7.30;76.60;;;;;;5019386;28;20600;-79
2020/12/02 08:11:34;;;;;;;6.47;4.57;;;7.30;76.70;;;;;;5019876;28;20029;-80
2020/12/02 08:14:00;;;;;;;8.00;4.57;;;7.40;76.90;;;;;;5023308;28;20053;-78
2020/12/02 08:16:28;;;;;;;6.57;4.15;;;7.40;76.90;;;;;;5016202;28;20599;-79
2020/12/02 08:18:57;;;;;;;7.55;5.00;;;7.50;77.10;;;;;;5025523;28;20044;-82
2020/12/02 08:21:28;;;;;;;6.10;4.65;;;7.50;77.00;;;;;;5017534;28;20338;-84
2020/12/02 08:24:21;;;;;;;10.65;4.78;;;7.50;77.00;;;;;;5023089;28;20429;-81
2020/12/02 08:26:51;;;;;;;6.32;4.45;;;7.60;77.20;;;;;;5024107;28;20550;-78
2020/12/02 08:29:23;;;;;;;10.15;4.78;;;7.60;77.20;;;;;;5020058;28;20160;-77
2020/12/02 08:32:18;;;;;;;6.47;4.15;;;7.60;77.20;;;;;;5023647;28;20021;-76
2020/12/02 08:34:44;;;;;;;6.75;4.15;;;7.60;77.20;;;;;;4999375;28;20452;-80
2020/12/02 08:37:10;;;;;;;7.70;4.60;;;7.60;77.10;;;;;;5029470;28;20141;-80
2020/12/02 08:39:41;;;;;;;6.47;4.70;;;7.70;77.30;;;;;;5006477;28;20065;-79
2020/12/02 08:42:24;;;;;;;6.72;4.80;;;7.70;77.30;;;;;;5004877;28;20045;-79
2020/12/02 08:45:19;;;;;;;6.95;4.68;;;7.70;77.30;;;;;;5026957;28;20416;-80
2020/12/02 08:47:56;;;;;;;10.55;5.78;;;7.70;77.50;;;;;;5010252;28;20045;-78
2020/12/02 08:50:28;;;;;;;8.80;5.13;;;7.80;77.80;;;;;;5015534;28;20038;-80
2020/12/02 08:52:56;;;;;;;7.85;5.22;;;7.80;77.80;;;;;;5016684;28;20139;-80
2020/12/02 08:55:23;;;;;;;5.50;4.93;;;7.80;77.80;;;;;;5015239;28;20029;-78
2020/12/02 08:57:49;;;;;;;10.02;5.03;;;7.90;78.00;;;;;;5017525;28;20037;-82
2020/12/02 09:00:18;;;;;;;7.90;5.03;;;7.90;78.00;;;;;;5008718;28;20076;-79
2020/12/02 09:02:44;;;;;;;11.30;4.85;;;8.00;78.10;;;;;;5026121;28;20431;-77
2020/12/02 09:05:11;;;;;;;6.72;5.10;;;8.00;78.10;;;;;;5026146;28;20072;-77
2020/12/02 09:07:37;;;;;;;8.00;4.95;;;8.00;78.10;;;;;;5026185;28;20037;-79
2020/12/02 09:10:05;;;;;;;8.90;5.70;;;8.00;78.10;;;;;;5026549;28;20477;-81
2020/12/02 09:12:31;;;;;;;8.63;6.50;;;8.00;78.10;;;;;;5026309;28;20040;-80
2020/12/02 09:14:57;;;;;;;11.75;5.43;;;8.00;78.10;;;;;;5024676;28;20029;-79
2020/12/02 09:17:23;;;;;;;7.10;5.40;;;8.10;78.20;;;;;;5026506;28;20461;-80
2020/12/02 09:19:50;;;;;;;13.02;6.18;;;8.10;78.20;;;;;;5007980;28;20067;-80
2020/12/02 09:22:20;;;;;;;10.15;5.63;;;8.10;78.30;;;;;;5024648;28;20034;-79
2020/12/02 09:24:47;;;;;;;14.02;6.65;;;8.10;78.20;;;;;;5026190;28;20025;-80
2020/12/02 09:27:14;;;;;;;9.05;5.50;;;8.20;78.40;;;;;;5024176;28;20043;-79
2020/12/02 09:29:40;;;;;;;13.50;6.13;;;8.10;78.20;;;;;;5026318;28;20111;-77
2020/12/02 09:32:07;;;;;;;9.50;5.57;;;8.20;78.40;;;;;;5025649;28;20039;-78
2020/12/02 09:34:33;;;;;;;9.80;6.10;;;8.20;78.40;;;;;;5026391;28;20476;-79
2020/12/02 09:36:59;;;;;;;11.45;6.13;;;8.20;78.40;;;;;;5008683;28;20199;-78
2020/12/02 09:39:27;;;;;;;13.35;6.03;;;8.20;78.40;;;;;;5025873;28;20046;-76
2020/12/02 09:42:15;;;;;;;10.93;6.25;;;8.20;78.30;;;;;;5024691;28;20337;-80
2020/12/02 09:44:56;;;;;;;11.38;6.10;;;8.20;78.40;;;;;;5026105;28;20532;-78
2020/12/02 09:47:22;;;;;;;9.57;6.10;;;8.20;78.30;;;;;;5024555;28;20057;-78
2020/12/02 09:49:48;;;;;;;8.73;5.20;;;8.30;78.40;;;;;;5026154;28;20118;-78
2020/12/02 09:52:29;;;;;;;10.45;5.38;;;8.30;78.40;;;;;;5025382;28;20026;-78
2020/12/02 09:54:56;;;;;;;9.35;6.10;;;8.30;78.40;;;;;;5028417;28;20518;-79
2020/12/02 09:57:28;;;;;;;10.23;6.63;;;8.30;78.40;;;;;;5030407;28;20507;-78
2020/12/02 09:59:55;;;;;;;10.50;5.88;;;8.30;78.40;;;;;;5011909;28;20180;-79
2020/12/02 10:02:37;;;;;;;10.45;6.68;;;8.30;78.40;;;;;;5027277;28;20068;-80
2020/12/02 10:05:25;;;;;;;16.35;7.28;;;8.30;78.40;;;;;;5011990;28;20034;-80
2020/12/02 10:08:19;;;;;;;15.30;5.95;;;8.40;78.50;;;;;;5028980;28;20041;-79
2020/12/02 10:11:32;;;;;;;11.35;7.03;;;8.40;78.50;;;;;;5029711;28;20079;-78
2020/12/02 10:14:13;;;;;;;11.38;6.22;;;8.40;78.50;;;;;;5005640;28;20096;-79
2020/12/02 10:17:05;;;;;;;10.63;6.63;;;8.40;78.50;;;;;;5028209;28;20041;-75
2020/12/02 10:19:54;;;;;;;7.72;5.22;;;8.40;78.50;;;;;;5028659;28;20032;-79
2020/12/02 10:22:37;;;;;;;7.40;5.78;;;8.50;78.70;;;;;;5027743;28;20369;-79
2020/12/02 10:25:15;;;;;;;10.93;6.20;;;8.50;78.90;;;;;;5011711;28;20072;-81
2020/12/02 10:27:59;;;;;;;14.52;6.25;;;8.60;79.10;;;;;;5011702;28;20457;-79
2020/12/02 10:30:27;;;;;;;11.20;6.47;;;8.70;79.20;;;;;;5029190;28;20184;-79
2020/12/02 10:33:29;;;;;;;12.35;6.50;;;8.70;79.20;;;;;;5028518;28;20209;-78
2020/12/02 10:35:57;;;;;;;8.60;6.50;;;8.80;79.40;;;;;;5027659;28;20123;-77
2020/12/02 10:38:32;;;;;;;9.70;6.10;;;8.90;79.40;;;;;;5028856;28;20124;-79
2020/12/02 10:41:22;;;;;;;10.65;6.72;;;8.90;79.40;;;;;;5027343;28;20648;-78
2020/12/02 10:43:57;;;;;;;13.77;6.90;;;9.00;79.60;;;;;;5029130;28;20500;-78
2020/12/02 10:46:41;;;;;;;13.25;6.78;;;9.10;79.70;;;;;;5027596;28;20045;-80
2020/12/02 10:49:26;;;;;;;9.77;6.50;;;9.10;79.60;;;;;;5010977;28;20116;-80
2020/12/02 10:51:54;;;;;;;;;;;9.10;79.60;;;;;;5027994;28;20029;-79
2020/12/02 10:54:24;;;;;;;10.95;6.25;;;9.10;79.40;;;;;;5025611;28;19993;-80
2020/12/02 10:56:56;;;;;;;11.10;6.63;;;9.10;79.30;;;;;;5022070;28;20065;-78
2020/12/02 10:59:24;;;;;;;11.50;7.55;;;9.20;79.50;;;;;;5016382;28;20115;-81
2020/12/02 11:01:51;;;;;;;12.00;6.65;;;9.20;79.50;;;;;;5009926;28;20175;-80
2020/12/02 11:04:19;;;;;;;12.27;7.00;;;9.20;79.50;;;;;;5007395;28;20033;-79
2020/12/02 11:06:58;;;;;;;11.90;7.47;;;9.20;79.50;;;;;;5008754;28;20037;-84
2020/12/02 11:09:47;;;;;;;13.80;6.65;;;9.20;79.40;;;;;;5010714;28;20101;-80
2020/12/02 11:12:31;;;;;;;8.20;6.13;;;9.20;79.40;;;;;;5028439;28;20038;-78
2020/12/02 11:15:03;;;;;;;14.25;6.82;;;9.30;79.60;;;;;;5021284;28;20030;-80
2020/12/02 11:17:39;;;;;;;15.77;7.75;;;9.30;79.60;;;;;;5012549;28;20497;-79
2020/12/02 11:20:15;;;;;;;12.10;7.32;;;9.30;79.60;;;;;;5016790;28;20029;-79
2020/12/02 11:23:06;;;;;;;13.43;7.80;;;9.30;79.60;;;;;;5008658;28;20038;-76
2020/12/02 11:26:14;;;;;;;11.55;6.32;;;9.40;79.70;;;;;;5007877;28;20060;-76
2020/12/02 11:28:45;;;;;;;11.43;7.53;;;9.40;79.70;;;;;;5000850;28;20030;-76
2020/12/02 11:31:36;;;;;;;9.85;6.80;;;9.40;79.60;;;;;;5022498;28;20095;-76
2020/12/02 11:34:33;;;;;;;17.13;7.50;;;9.50;79.70;;;;;;5021199;28;20037;-77
2020/12/02 11:37:16;;;;;;;16.33;7.20;;;9.50;79.60;;;;;;5024713;28;20509;-79
2020/12/02 11:40:02;;;;;;;10.25;6.55;;;9.60;79.70;;;;;;5007839;28;20489;-76
2020/12/02 11:42:35;;;;;;;13.07;6.53;;;9.50;79.50;;;;;;5027312;28;20095;-78
2020/12/02 11:45:21;;;;;;;10.52;7.03;;;9.60;79.60;;;;;;5027930;28;20357;-77
2020/12/02 11:48:08;;;;;;;13.35;7.18;;;9.60;79.60;;;;;;5026175;28;20057;-79
2020/12/02 11:50:44;;;;;;;8.85;7.25;;;9.60;79.50;;;;;;5027523;28;20072;-79
2020/12/02 11:53:44;;;;;;;9.48;6.45;;;9.70;79.70;;;;;;5026589;28;20117;-80
2020/12/02 11:56:23;;;;;;;9.65;6.85;;;9.70;79.60;;;;;;5029603;28;20436;-76
2020/12/02 11:59:03;;;;;;;14.23;7.55;;;9.70;79.60;;;;;;5028254;28;20469;-78
2020/12/02 12:01:50;;;;;;;14.05;7.10;;;9.80;79.80;;;;;;4990992;28;20049;-76
2020/12/02 12:04:47;;;;;;;9.00;6.60;;;9.70;79.60;;;;;;5006161;28;20405;-77
2020/12/02 12:07:38;;;;;;;11.40;6.95;;;9.80;79.70;;;;;;5008621;28;20581;-79
2020/12/02 12:10:18;;;;;;;12.15;6.90;;;9.80;79.70;;;;;;5014230;28;20127;-78
2020/12/02 12:12:53;;;;;;;10.48;7.25;;;9.80;79.70;;;;;;5026924;28;20029;-77
2020/12/02 12:15:25;;;;;;;9.50;6.95;;;9.90;79.80;;;;;;5025286;28;20041;-77
2020/12/02 12:17:53;;;;;;;8.05;6.78;;;9.90;79.80;;;;;;5025339;28;20053;-77
2020/12/02 12:20:27;;;;;;;9.30;7.00;;;9.90;79.70;;;;;;5027002;28;20047;-77
2020/12/02 12:23:22;;;;;;;17.20;8.52;;;9.90;79.70;;;;;;5026842;28;20033;-77
2020/12/02 12:25:48;;;;;;;8.18;6.95;;;9.90;79.60;;;;;;5024961;28;20045;-77
2020/12/02 12:28:21;;;;;;;13.52;7.32;;;9.90;79.60;;;;;;5025477;28;20022;-77
2020/12/02 12:30:47;;;;;;;10.82;6.32;;;10.00;79.70;;;;;;5025111;28;20073;-77
2020/12/02 12:33:33;;;;;;;9.05;7.03;;;10.00;79.70;;;;;;5026898;28;20029;-77
2020/12/02 12:36:09;;;;;;;11.68;6.82;;;10.00;79.70;;;;;;5026966;28;20041;-78
2020/12/02 12:38:48;;;;;;;12.18;7.05;;;10.00;79.70;;;;;;5027111;28;20041;-77
2020/12/02 12:41:29;;;;;;;12.88;7.03;;;10.10;79.80;;;;;;5026068;28;20038;-79
2020/12/02 12:44:37;;;;;;;8.13;6.40;;;10.10;79.80;;;;;;5026967;28;20083;-76
2020/12/02 12:47:11;;;;;;;9.60;6.78;;;10.10;79.80;;;;;;5026200;28;20049;-76
2020/12/02 12:49:37;;;;;;;11.27;8.02;;;10.20;79.90;;;;;;5026215;28;20035;-77
2020/12/02 12:52:05;;;;;;;13.35;7.35;;;10.30;80.00;;;;;;5008176;28;20124;-77
2020/12/02 12:54:31;;;;;;;11.07;7.40;;;10.30;80.00;;;;;;5025963;28;20029;-77
2020/12/02 12:57:00;;;;;;;11.52;7.15;;;10.40;80.10;;;;;;5024865;28;20065;-77
2020/12/02 12:59:26;;;;;;;14.77;6.88;;;10.40;80.10;;;;;;5024673;28;20432;-77
2020/12/02 13:01:55;;;;;;;12.65;7.00;;;10.40;80.00;;;;;;5025944;28;20037;-76
2020/12/02 13:04:25;;;;;;;10.57;7.05;;;10.50;80.10;;;;;;5025564;28;20294;-77
2020/12/02 13:07:15;;;;;;;10.60;7.00;;;10.50;80.10;;;;;;5026510;28;20039;-77
2020/12/02 13:09:59;;;;;;;14.02;7.20;;;10.60;80.20;;;;;;5024802;28;20030;-77
2020/12/02 13:12:52;;;;;;;11.07;6.72;;;10.70;80.30;;;;;;5026225;28;20101;-78
2020/12/02 13:15:36;;;;;;;11.00;7.07;;;10.80;80.40;;;;;;5024740;28;20036;-76
2020/12/02 13:18:02;;;;;;;;;;;10.80;80.30;;;;;;5025320;28;20333;-77
2020/12/02 13:20:36;;;;;;;11.70;7.68;;;10.90;80.30;;;;;;5025658;28;19918;-77
2020/12/02 13:23:07;;;;;;;9.40;7.38;;;10.90;80.20;;;;;;5026518;28;20049;-78
2020/12/02 13:25:45;;;;;;;11.20;6.97;;;10.90;80.20;;;;;;5024516;28;20036;-78